createdAt,value
2018-08-30T00:00:30.346Z,3.85
2018-08-30T00:03:03.497Z,3.62
2018-08-30T00:05:36.706Z,4.65
2018-08-30T00:08:09.957Z,4.20
2018-08-30T00:10:43.187Z,7.15
2018-08-30T00:13:16.278Z,5.37
2018-08-30T00:15:49.425Z,4.53
2018-08-30T00:18:22.486Z,4.00
2018-08-30T00:20:55.706Z,4.03
2018-08-30T00:23:28.905Z,3.52
2018-08-30T00:26:02.105Z,4.03
2018-08-30T00:28:35.257Z,4.22
2018-08-30T00:31:08.711Z,4.42
2018-08-30T00:33:41.826Z,4.62
2018-08-30T00:36:14.981Z,3.85
2018-08-30T00:38:48.145Z,3.80
2018-08-30T00:41:21.273Z,4.67
2018-08-30T00:43:54.441Z,4.55
2018-08-30T00:46:27.570Z,4.80
2018-08-30T00:49:00.809Z,4.42
2018-08-30T00:51:34.037Z,4.45
2018-08-30T00:54:07.216Z,4.25
2018-08-30T00:56:40.378Z,4.67
2018-08-30T00:59:13.597Z,4.45
2018-08-30T01:01:46.719Z,4.40
2018-08-30T01:04:20.160Z,4.72
2018-08-30T01:06:53.308Z,4.97
2018-08-30T01:09:26.464Z,4.70
2018-08-30T01:11:59.631Z,5.05
2018-08-30T01:14:32.759Z,4.80
2018-08-30T01:17:05.891Z,5.00
2018-08-30T01:19:39.054Z,5.20
2018-08-30T01:22:19.061Z,5.47
2018-08-30T01:24:52.217Z,5.12
2018-08-30T01:27:25.302Z,5.60
2018-08-30T01:29:58.553Z,5.42
2018-08-30T01:32:31.811Z,5.40
2018-08-30T01:35:05.007Z,4.83
2018-08-30T01:37:38.265Z,5.53
2018-08-30T01:40:11.416Z,5.00
2018-08-30T01:42:44.544Z,4.85
2018-08-30T01:45:17.689Z,5.42
2018-08-30T01:47:50.841Z,4.87
2018-08-30T01:50:24.049Z,3.70
2018-08-30T01:52:57.257Z,4.58
2018-08-30T01:55:30.404Z,4.85
2018-08-30T01:58:03.597Z,4.75
2018-08-30T02:00:36.730Z,4.87
2018-08-30T02:03:09.871Z,4.60
2018-08-30T02:05:43.018Z,4.40
2018-08-30T02:08:16.148Z,5.15
2018-08-30T02:10:49.285Z,4.28
2018-08-30T02:13:22.383Z,4.55
2018-08-30T02:15:55.660Z,4.22
2018-08-30T02:18:28.863Z,4.70
2018-08-30T02:21:02.013Z,4.40
2018-08-30T02:23:35.154Z,4.45
2018-08-30T02:26:08.316Z,3.80
2018-08-30T02:28:41.434Z,3.92
2018-08-30T02:31:14.566Z,3.58
2018-08-30T02:33:47.694Z,3.30
2018-08-30T02:36:20.993Z,3.52
2018-08-30T02:38:54.116Z,3.08
2018-08-30T02:41:27.237Z,3.47
2018-08-30T02:44:00.344Z,3.10
2018-08-30T02:46:33.712Z,3.37
2018-08-30T02:49:06.896Z,3.02
2018-08-30T02:51:40.046Z,3.02
2018-08-30T02:54:13.236Z,3.27
2018-08-30T02:56:46.437Z,2.72
2018-08-30T02:59:19.568Z,2.95
2018-08-30T03:01:52.693Z,2.77
2018-08-30T03:04:25.824Z,2.92
2018-08-30T03:06:59.020Z,2.80
2018-08-30T03:09:32.126Z,2.62
2018-08-30T03:12:05.337Z,2.50
2018-08-30T03:14:38.482Z,2.60
2018-08-30T03:17:11.614Z,2.42
2018-08-30T03:19:44.728Z,2.33
2018-08-30T03:22:17.874Z,2.40
2018-08-30T03:24:51.008Z,2.50
2018-08-30T03:27:24.177Z,2.15
2018-08-30T03:29:57.270Z,2.27
2018-08-30T03:32:30.416Z,2.40
2018-08-30T03:35:03.668Z,2.52
2018-08-30T03:37:36.825Z,2.75
2018-08-30T03:40:09.910Z,2.25
2018-08-30T03:42:43.090Z,2.50
2018-08-30T03:45:16.194Z,2.30
2018-08-30T03:47:49.314Z,2.55
2018-08-30T03:50:22.440Z,3.10
2018-08-30T03:52:55.594Z,2.55
2018-08-30T03:55:28.706Z,2.70
2018-08-30T03:58:01.862Z,3.40
2018-08-30T04:00:35.021Z,2.62
2018-08-30T04:03:08.152Z,3.10
2018-08-30T04:05:41.294Z,2.83
2018-08-30T04:08:14.431Z,2.87
2018-08-30T04:10:47.538Z,2.90
2018-08-30T04:13:20.727Z,2.75
2018-08-30T04:15:53.794Z,2.77
2018-08-30T04:18:27.008Z,2.47
2018-08-30T04:21:00.159Z,3.40
2018-08-30T04:23:33.282Z,2.80
2018-08-30T04:26:06.478Z,2.50
2018-08-30T04:28:39.596Z,2.85
2018-08-30T04:31:12.705Z,3.30
2018-08-30T04:33:45.861Z,3.70
2018-08-30T04:36:19.019Z,3.77
2018-08-30T04:38:52.380Z,3.92
2018-08-30T04:41:26.034Z,3.77
2018-08-30T04:43:59.114Z,4.42
2018-08-30T04:46:32.208Z,4.15
2018-08-30T04:49:05.397Z,4.30
2018-08-30T04:51:38.565Z,4.72
2018-08-30T04:54:11.665Z,4.47
2018-08-30T04:56:44.846Z,3.85
2018-08-30T04:59:17.953Z,4.10
2018-08-30T05:01:51.205Z,4.33
2018-08-30T05:04:24.303Z,4.85
2018-08-30T05:06:57.455Z,5.65
2018-08-30T05:09:30.556Z,5.12
2018-08-30T05:12:03.699Z,5.90
2018-08-30T05:14:36.796Z,5.37
2018-08-30T05:17:09.946Z,5.00
2018-08-30T05:19:43.047Z,5.40
2018-08-30T05:22:16.181Z,3.98
2018-08-30T05:24:49.300Z,6.58
2018-08-30T05:27:22.471Z,4.30
2018-08-30T05:29:55.612Z,4.85
2018-08-30T05:32:28.737Z,4.45
2018-08-30T05:35:01.884Z,4.35
2018-08-30T05:37:35.029Z,4.37
2018-08-30T05:40:08.216Z,4.55
2018-08-30T05:42:41.404Z,4.45
2018-08-30T05:45:14.609Z,6.83
2018-08-30T05:47:47.781Z,3.72
2018-08-30T05:50:20.951Z,4.17
2018-08-30T05:52:54.074Z,5.33
2018-08-30T05:55:27.213Z,3.87
2018-08-30T05:58:00.437Z,3.50
2018-08-30T06:00:33.663Z,4.53
2018-08-30T06:03:06.836Z,3.25
2018-08-30T06:05:40.005Z,4.03
2018-08-30T06:08:13.081Z,4.20
2018-08-30T06:10:46.413Z,3.85
2018-08-30T06:13:19.517Z,4.25
2018-08-30T06:15:52.643Z,4.92
2018-08-30T06:18:25.821Z,4.33
2018-08-30T06:20:58.948Z,3.80
2018-08-30T06:23:32.077Z,3.98
2018-08-30T06:26:05.548Z,3.65
2018-08-30T06:28:38.792Z,4.30
2018-08-30T06:31:11.958Z,3.83
2018-08-30T06:33:45.118Z,4.40
2018-08-30T06:36:18.303Z,5.10
2018-08-30T06:38:51.486Z,6.10
2018-08-30T06:41:24.619Z,5.87
2018-08-30T06:43:57.738Z,7.05
2018-08-30T06:46:30.877Z,6.50
2018-08-30T06:49:04.430Z,5.70
2018-08-30T06:51:37.565Z,6.20
2018-08-30T06:54:10.718Z,6.45
2018-08-30T06:56:43.920Z,7.08
2018-08-30T06:59:17.041Z,6.72
2018-08-30T07:01:50.264Z,12.03
2018-08-30T07:04:23.464Z,10.28
2018-08-30T07:06:56.572Z,7.10
2018-08-30T07:09:29.741Z,6.80
2018-08-30T07:12:02.966Z,7.33
2018-08-30T07:14:36.191Z,7.35
2018-08-30T07:17:09.314Z,7.85
2018-08-30T07:19:42.504Z,8.63
2018-08-30T07:22:15.673Z,8.60
2018-08-30T07:24:48.804Z,14.73
2018-08-30T07:27:21.905Z,7.53
2018-08-30T07:29:55.061Z,7.85
2018-08-30T07:32:28.243Z,7.78
2018-08-30T07:35:01.608Z,7.80
2018-08-30T07:37:34.537Z,9.95
2018-08-30T07:40:07.733Z,9.73
2018-08-30T07:42:40.858Z,9.53
2018-08-30T07:45:14.018Z,9.83
2018-08-30T07:47:47.127Z,10.98
2018-08-30T07:50:20.267Z,10.05
2018-08-30T07:52:53.410Z,10.43
2018-08-30T07:55:26.619Z,9.70
2018-08-30T07:57:59.698Z,8.80
2018-08-30T08:00:32.855Z,8.33
2018-08-30T08:03:06.105Z,8.53
2018-08-30T08:05:39.245Z,7.97
2018-08-30T08:08:12.419Z,7.42
2018-08-30T08:10:45.853Z,8.05
2018-08-30T08:13:19.037Z,7.97
2018-08-30T08:15:52.222Z,8.18
2018-08-30T08:18:25.380Z,7.20
2018-08-30T08:20:58.458Z,8.03
2018-08-30T08:23:31.578Z,6.42
2018-08-30T08:26:04.735Z,6.83
2018-08-30T08:28:37.890Z,7.00
2018-08-30T08:31:11.031Z,9.65
2018-08-30T08:33:44.178Z,7.80
2018-08-30T08:36:17.287Z,8.80
2018-08-30T08:38:50.434Z,7.17
2018-08-30T08:41:23.597Z,6.92
2018-08-30T08:43:56.819Z,6.97
2018-08-30T08:46:30.065Z,7.15
2018-08-30T08:49:03.246Z,7.08
2018-08-30T08:51:36.401Z,6.95
2018-08-30T08:54:09.607Z,6.47
2018-08-30T08:56:42.756Z,6.17
2018-08-30T08:59:16.102Z,5.65
2018-08-30T09:01:49.246Z,6.03
2018-08-30T09:04:22.488Z,6.10
2018-08-30T09:06:56.294Z,7.65
2018-08-30T09:09:30.039Z,6.00
2018-08-30T09:12:03.740Z,5.67
2018-08-30T09:14:37.438Z,5.97
2018-08-30T09:17:10.707Z,5.05
2018-08-30T09:19:43.850Z,5.55
2018-08-30T09:22:17.120Z,4.17
2018-08-30T09:24:50.243Z,5.17
2018-08-30T09:27:23.398Z,5.03
2018-08-30T09:29:57.370Z,15.15
2018-08-30T09:32:30.613Z,5.03
2018-08-30T09:35:03.987Z,4.80
2018-08-30T09:37:37.215Z,4.35
2018-08-30T09:40:10.538Z,4.78
2018-08-30T09:42:43.697Z,55.05
2018-08-30T09:45:16.858Z,8.30
2018-08-30T09:47:50.087Z,4.15
2018-08-30T09:50:23.213Z,4.65
2018-08-30T09:52:56.391Z,5.12
2018-08-30T09:55:29.655Z,4.70
2018-08-30T09:58:02.830Z,4.35
2018-08-30T10:00:41.516Z,3.92
2018-08-30T10:03:14.691Z,4.00
2018-08-30T10:05:47.826Z,4.80
2018-08-30T10:08:20.989Z,5.45
2018-08-30T10:10:54.170Z,7.05
2018-08-30T10:13:27.370Z,5.78
2018-08-30T10:16:00.609Z,6.20
2018-08-30T10:18:33.737Z,4.00
2018-08-30T10:21:06.926Z,5.35
2018-08-30T10:23:40.103Z,4.78
2018-08-30T10:26:13.197Z,5.28
2018-08-30T10:28:46.353Z,5.53
2018-08-30T10:31:19.505Z,5.42
2018-08-30T10:33:52.644Z,5.00
2018-08-30T10:36:25.841Z,4.85
2018-08-30T10:38:59.059Z,5.25
2018-08-30T10:41:32.253Z,5.17
2018-08-30T10:44:05.517Z,5.65
2018-08-30T10:46:38.689Z,5.58
2018-08-30T10:49:11.859Z,5.15
2018-08-30T10:51:45.010Z,6.55
2018-08-30T10:54:18.143Z,6.33
2018-08-30T10:56:51.345Z,9.48
2018-08-30T10:59:24.481Z,7.00
2018-08-30T11:01:57.742Z,6.25
2018-08-30T11:04:31.037Z,6.95
2018-08-30T11:07:04.355Z,11.95
2018-08-30T11:09:37.490Z,8.43
2018-08-30T11:12:10.761Z,6.30
2018-08-30T11:14:43.906Z,7.78
2018-08-30T11:17:17.130Z,6.97
2018-08-30T11:19:50.286Z,7.55
2018-08-30T11:22:23.447Z,8.13
2018-08-30T11:24:56.586Z,10.60
2018-08-30T11:27:29.814Z,6.95
2018-08-30T11:30:03.149Z,7.37
2018-08-30T11:32:36.404Z,7.47
2018-08-30T11:35:09.649Z,8.95
2018-08-30T11:37:43.580Z,8.05
2018-08-30T11:40:16.703Z,8.40
2018-08-30T11:42:50.149Z,8.75
2018-08-30T11:45:23.345Z,7.20
2018-08-30T11:47:56.565Z,6.87
2018-08-30T11:50:29.719Z,6.72
2018-08-30T11:53:02.889Z,7.80
2018-08-30T11:55:36.056Z,7.55
2018-08-30T11:58:09.303Z,7.50
2018-08-30T12:00:42.575Z,8.68
2018-08-30T12:03:15.847Z,9.48
2018-08-30T12:05:50.415Z,8.45
2018-08-30T12:08:23.664Z,9.35
2018-08-30T12:10:57.002Z,9.45
2018-08-30T12:13:30.250Z,9.08
2018-08-30T12:16:03.382Z,8.68
2018-08-30T12:18:36.642Z,10.45
2018-08-30T12:21:09.829Z,9.40
2018-08-30T12:23:43.016Z,9.00
2018-08-30T12:26:16.294Z,10.00
2018-08-30T12:28:49.596Z,9.85
2018-08-30T12:31:22.823Z,8.58
2018-08-30T12:33:56.144Z,9.73
2018-08-30T12:36:29.452Z,10.55
2018-08-30T12:39:02.867Z,11.28
2018-08-30T12:41:36.098Z,8.30
2018-08-30T12:44:09.357Z,13.30
2018-08-30T12:46:42.629Z,10.20
2018-08-30T12:49:15.809Z,10.80
2018-08-30T12:51:49.038Z,9.38
2018-08-30T12:54:22.236Z,9.85
2018-08-30T12:56:55.325Z,9.28
2018-08-30T12:59:34.243Z,8.00
2018-08-30T13:02:07.624Z,9.35
2018-08-30T13:04:40.920Z,8.53
2018-08-30T13:07:14.204Z,9.68
2018-08-30T13:09:47.429Z,8.30
2018-08-30T13:12:20.702Z,9.68
2018-08-30T13:14:53.891Z,9.55
2018-08-30T13:17:27.056Z,10.60
2018-08-30T13:20:00.167Z,8.95
2018-08-30T13:22:33.449Z,9.58
2018-08-30T13:25:06.919Z,9.60
2018-08-30T13:27:39.936Z,8.28
2018-08-30T13:30:13.200Z,8.98
2018-08-30T13:32:46.302Z,9.70
2018-08-30T13:35:19.782Z,9.55
2018-08-30T13:37:52.914Z,9.05
2018-08-30T13:40:26.138Z,8.75
2018-08-30T13:42:59.449Z,9.50
2018-08-30T13:45:32.465Z,8.48
2018-08-30T13:48:05.720Z,8.28
2018-08-30T13:50:38.735Z,8.25
2018-08-30T13:53:11.931Z,8.23
2018-08-30T13:55:45.185Z,9.33
2018-08-30T13:58:18.324Z,9.30
2018-08-30T14:00:51.777Z,8.60
2018-08-30T14:03:24.916Z,9.25
2018-08-30T14:05:58.418Z,9.48
2018-08-30T14:08:31.780Z,9.08
2018-08-30T14:11:05.329Z,8.38
2018-08-30T14:13:38.348Z,7.75
2018-08-30T14:16:12.077Z,7.30
2018-08-30T14:18:45.304Z,7.97
2018-08-30T14:21:18.701Z,8.10
2018-08-30T14:23:52.778Z,8.03
2018-08-30T14:26:26.000Z,9.25
2018-08-30T14:28:59.183Z,9.65
2018-08-30T14:31:32.461Z,8.60
2018-08-30T14:34:05.666Z,9.93
2018-08-30T14:36:39.150Z,8.38
2018-08-30T14:39:12.441Z,9.03
2018-08-30T14:41:45.673Z,9.58
2018-08-30T14:44:18.809Z,8.53
2018-08-30T14:46:52.196Z,8.45
2018-08-30T14:49:25.153Z,10.63
2018-08-30T14:51:58.382Z,8.95
2018-08-30T14:54:31.669Z,8.23
2018-08-30T14:57:05.353Z,9.80
2018-08-30T14:59:38.514Z,9.63
2018-08-30T15:02:11.742Z,9.63
2018-08-30T15:04:44.925Z,9.50
2018-08-30T15:07:18.129Z,10.30
2018-08-30T15:09:51.324Z,9.28
2018-08-30T15:12:24.590Z,10.50
2018-08-30T15:14:57.731Z,8.93
2018-08-30T15:17:31.174Z,9.53
2018-08-30T15:20:04.401Z,10.68
2018-08-30T15:22:37.559Z,8.10
2018-08-30T15:25:10.766Z,8.23
2018-08-30T15:27:44.002Z,7.92
2018-08-30T15:30:17.216Z,9.00
2018-08-30T15:32:50.431Z,9.28
2018-08-30T15:35:23.619Z,9.03
2018-08-30T15:37:56.846Z,8.48
2018-08-30T15:40:30.191Z,7.60
2018-08-30T15:43:03.584Z,9.55
2018-08-30T15:45:36.809Z,9.70
2018-08-30T15:48:10.089Z,10.25
2018-08-30T15:50:43.247Z,9.70
2018-08-30T15:53:16.504Z,7.67
2018-08-30T15:55:56.708Z,10.13
2018-08-30T15:58:29.971Z,9.50
2018-08-30T16:01:03.164Z,10.78
2018-08-30T16:03:36.426Z,9.43
2018-08-30T16:06:09.669Z,9.35
2018-08-30T16:08:42.885Z,8.90
2018-08-30T16:11:16.121Z,10.45
2018-08-30T16:13:49.345Z,10.13
2018-08-30T16:16:22.543Z,10.40
2018-08-30T16:18:55.726Z,10.10
2018-08-30T16:21:29.056Z,8.83
2018-08-30T16:24:02.170Z,8.50
2018-08-30T16:26:35.350Z,7.92
2018-08-30T16:29:08.474Z,8.63
2018-08-30T16:31:41.677Z,10.98
2018-08-30T16:34:14.852Z,9.53
2018-08-30T16:36:48.117Z,9.80
2018-08-30T16:39:21.327Z,7.65
2018-08-30T16:41:54.515Z,8.70
2018-08-30T16:44:27.737Z,8.08
2018-08-30T16:47:01.012Z,8.30
2018-08-30T16:49:34.204Z,10.10
2018-08-30T16:52:07.534Z,9.03
2018-08-30T16:54:40.774Z,7.83
2018-08-30T16:57:14.022Z,8.15
2018-08-30T16:59:47.256Z,10.53
2018-08-30T17:02:20.547Z,9.03
2018-08-30T17:04:53.824Z,9.03
2018-08-30T17:07:27.050Z,8.65
2018-08-30T17:10:00.273Z,7.58
2018-08-30T17:12:33.559Z,8.83
2018-08-30T17:15:06.820Z,8.48
2018-08-30T17:17:40.110Z,8.90
2018-08-30T17:20:22.659Z,9.15
2018-08-30T17:22:55.850Z,8.25
2018-08-30T17:25:29.164Z,8.53
2018-08-30T17:28:02.346Z,9.00
2018-08-30T17:30:35.599Z,8.08
2018-08-30T17:33:09.070Z,8.60
2018-08-30T17:35:42.444Z,8.18
2018-08-30T17:38:15.630Z,8.23
2018-08-30T17:40:48.903Z,9.28
2018-08-30T17:43:22.083Z,10.43
2018-08-30T17:45:55.275Z,8.03
2018-08-30T17:48:28.489Z,9.05
2018-08-30T17:51:01.766Z,10.00
2018-08-30T17:53:34.997Z,8.83
2018-08-30T17:56:08.411Z,9.18
2018-08-30T17:58:41.611Z,9.30
2018-08-30T18:01:14.854Z,12.35
2018-08-30T18:03:48.123Z,9.18
2018-08-30T18:06:21.407Z,8.68
2018-08-30T18:08:54.601Z,9.20
2018-08-30T18:11:27.802Z,8.63
2018-08-30T18:14:01.169Z,8.40
2018-08-30T18:16:34.401Z,10.93
2018-08-30T18:19:07.677Z,10.53
2018-08-30T18:21:40.900Z,11.83
2018-08-30T18:24:14.120Z,9.43
2018-08-30T18:26:47.221Z,9.63
2018-08-30T18:29:20.433Z,10.35
2018-08-30T18:31:53.678Z,11.70
2018-08-30T18:34:26.863Z,10.95
2018-08-30T18:37:00.107Z,8.83
2018-08-30T18:39:33.402Z,11.38
2018-08-30T18:42:06.826Z,10.38
2018-08-30T18:44:40.019Z,10.70
2018-08-30T18:47:13.415Z,10.15
2018-08-30T18:49:46.749Z,9.85
2018-08-30T18:52:20.023Z,10.82
2018-08-30T18:54:53.238Z,9.78
2018-08-30T18:57:26.472Z,10.45
2018-08-30T18:59:59.697Z,10.63
2018-08-30T19:02:32.956Z,10.98
2018-08-30T19:05:06.368Z,10.30
2018-08-30T19:07:39.809Z,10.50
2018-08-30T19:10:13.095Z,10.30
2018-08-30T19:12:46.374Z,10.38
2018-08-30T19:15:25.264Z,10.75
2018-08-30T19:18:04.051Z,12.28
2018-08-30T19:20:37.584Z,11.30
2018-08-30T19:23:10.876Z,9.28
2018-08-30T19:25:44.370Z,10.60
2018-08-30T19:28:17.941Z,10.32
2018-08-30T19:30:51.183Z,12.28
2018-08-30T19:33:24.419Z,10.80
2018-08-30T19:36:03.694Z,10.10
2018-08-30T19:38:37.255Z,10.20
2018-08-30T19:41:16.754Z,10.93
2018-08-30T19:43:51.142Z,11.30
2018-08-30T19:46:24.442Z,9.00
2018-08-30T19:48:57.766Z,11.03
2018-08-30T19:51:31.050Z,10.75
2018-08-30T19:54:04.357Z,11.28
2018-08-30T19:56:37.603Z,9.90
2018-08-30T19:59:10.820Z,9.90
2018-08-30T20:01:44.050Z,9.10
2018-08-30T20:04:17.237Z,10.65
2018-08-30T20:06:57.328Z,11.20
2018-08-30T20:09:30.598Z,12.63
2018-08-30T20:12:03.792Z,11.15
2018-08-30T20:14:37.039Z,11.35
2018-08-30T20:17:10.326Z,10.03
2018-08-30T20:19:43.581Z,12.63
2018-08-30T20:22:16.860Z,11.95
2018-08-30T20:24:50.048Z,11.55
2018-08-30T20:27:23.303Z,10.00
2018-08-30T20:29:56.799Z,12.23
2018-08-30T20:32:30.061Z,10.32
2018-08-30T20:35:03.347Z,10.85
2018-08-30T20:37:36.565Z,13.75
2018-08-30T20:40:09.835Z,10.25
2018-08-30T20:42:43.010Z,10.95
2018-08-30T20:45:16.264Z,12.35
2018-08-30T20:47:49.509Z,11.28
2018-08-30T20:50:22.754Z,11.85
2018-08-30T20:52:55.943Z,9.85
2018-08-30T20:55:29.184Z,11.80
2018-08-30T20:58:02.420Z,12.00
2018-08-30T21:00:35.625Z,11.75
2018-08-30T21:03:08.876Z,11.33
2018-08-30T21:05:42.058Z,11.25
2018-08-30T21:08:15.250Z,12.00
2018-08-30T21:10:48.487Z,11.20
2018-08-30T21:13:21.657Z,12.40
2018-08-30T21:15:54.928Z,10.13
2018-08-30T21:18:28.163Z,11.93
2018-08-30T21:21:01.364Z,11.20
2018-08-30T21:23:41.384Z,11.03
2018-08-30T21:26:14.569Z,9.68
2018-08-30T21:28:47.750Z,11.65
2018-08-30T21:31:20.925Z,10.18
2018-08-30T21:33:54.094Z,10.43
2018-08-30T21:36:27.245Z,13.38
2018-08-30T21:39:00.470Z,11.80
2018-08-30T21:41:33.562Z,12.05
2018-08-30T21:44:06.877Z,12.20
2018-08-30T21:46:40.054Z,10.15
2018-08-30T21:49:13.286Z,12.15
2018-08-30T21:51:46.606Z,11.53
2018-08-30T21:54:19.893Z,12.58
2018-08-30T21:56:53.155Z,9.73
2018-08-30T21:59:26.298Z,11.78
2018-08-30T22:01:59.573Z,12.30
2018-08-30T22:04:32.767Z,12.50
2018-08-30T22:07:05.924Z,12.18
2018-08-30T22:09:39.105Z,12.47
2018-08-30T22:12:12.279Z,11.75
2018-08-30T22:14:45.464Z,11.57
2018-08-30T22:17:18.618Z,12.10
2018-08-30T22:19:51.787Z,12.55
2018-08-30T22:22:25.024Z,11.80
2018-08-30T22:24:58.114Z,13.13
2018-08-30T22:27:32.078Z,13.40
2018-08-30T22:30:08.652Z,13.40
2018-08-30T22:32:41.816Z,12.25
2018-08-30T22:35:14.941Z,12.98
2018-08-30T22:37:48.084Z,12.75
2018-08-30T22:40:21.229Z,14.47
2018-08-30T22:42:54.368Z,12.98
2018-08-30T22:45:27.505Z,12.30
2018-08-30T22:48:00.702Z,13.70
2018-08-30T22:50:33.846Z,13.62
2018-08-30T22:53:07.038Z,12.18
2018-08-30T22:55:40.229Z,12.53
2018-08-30T22:58:20.374Z,12.90
2018-08-30T23:00:53.759Z,12.45
2018-08-30T23:03:27.002Z,13.70
2018-08-30T23:06:00.301Z,13.20
2018-08-30T23:08:33.499Z,11.33
2018-08-30T23:11:06.671Z,12.15
2018-08-30T23:13:39.944Z,13.05
2018-08-30T23:16:13.161Z,13.18
2018-08-30T23:18:46.304Z,10.20
2018-08-30T23:21:19.478Z,13.85
2018-08-30T23:23:52.594Z,11.68
2018-08-30T23:26:25.787Z,12.98
2018-08-30T23:28:59.005Z,12.47
2018-08-30T23:31:32.136Z,13.85
2018-08-30T23:34:05.733Z,13.75
2018-08-30T23:36:38.901Z,11.75
2018-08-30T23:39:12.223Z,10.00
2018-08-30T23:41:45.370Z,13.30
2018-08-30T23:44:18.495Z,12.78
2018-08-30T23:46:51.741Z,12.70
2018-08-30T23:49:24.847Z,13.08
2018-08-30T23:51:58.046Z,13.03
2018-08-30T23:54:31.146Z,13.65
2018-08-30T23:57:04.641Z,12.43
2018-08-30T23:59:54.918Z,12.53
